sensor_id;sensor_type;location;lat;lon;timestamp;P1;durP1;ratioP1;P2;durP2;ratioP2
65187;SDS011;51775;51.148;6.950;2023-07-08T00:02:15;2.00;;;1.47;;
65187;SDS011;51775;51.148;6.950;2023-07-08T00:04:40;2.42;;;1.50;;
65187;SDS011;51775;51.148;6.950;2023-07-08T00:07:10;2.08;;;1.30;;
65187;SDS011;51775;51.148;6.950;2023-07-08T00:09:37;1.92;;;1.30;;
65187;SDS011;51775;51.148;6.950;2023-07-08T00:12:04;2.50;;;1.47;;
65187;SDS011;51775;51.148;6.950;2023-07-08T00:14:33;2.70;;;1.70;;
65187;SDS011;51775;51.148;6.950;2023-07-08T00:16:58;2.35;;;1.45;;
65187;SDS011;51775;51.148;6.950;2023-07-08T00:19:24;2.40;;;1.37;;
65187;SDS011;51775;51.148;6.950;2023-07-08T00:21:50;2.33;;;1.57;;
65187;SDS011;51775;51.148;6.950;2023-07-08T00:24:15;2.40;;;1.50;;
65187;SDS011;51775;51.148;6.950;2023-07-08T00:26:40;2.33;;;1.50;;
65187;SDS011;51775;51.148;6.950;2023-07-08T00:29:09;2.27;;;1.50;;
65187;SDS011;51775;51.148;6.950;2023-07-08T00:31:35;2.63;;;1.70;;
65187;SDS011;51775;51.148;6.950;2023-07-08T00:34:00;2.28;;;1.50;;
65187;SDS011;51775;51.148;6.950;2023-07-08T00:36:26;2.45;;;1.58;;
65187;SDS011;51775;51.148;6.950;2023-07-08T00:38:52;3.13;;;1.50;;
65187;SDS011;51775;51.148;6.950;2023-07-08T00:43:53;2.20;;;1.55;;
65187;SDS011;51775;51.148;6.950;2023-07-08T00:48:45;2.30;;;1.53;;
65187;SDS011;51775;51.148;6.950;2023-07-08T00:51:12;2.65;;;1.50;;
65187;SDS011;51775;51.148;6.950;2023-07-08T00:53:37;2.25;;;1.50;;
65187;SDS011;51775;51.148;6.950;2023-07-08T00:56:09;2.47;;;1.63;;
65187;SDS011;51775;51.148;6.950;2023-07-08T00:58:41;2.00;;;1.27;;
65187;SDS011;51775;51.148;6.950;2023-07-08T01:01:09;2.78;;;1.50;;
65187;SDS011;51775;51.148;6.950;2023-07-08T01:06:23;2.28;;;1.60;;
65187;SDS011;51775;51.148;6.950;2023-07-08T01:08:50;2.47;;;1.52;;
65187;SDS011;51775;51.148;6.950;2023-07-08T01:11:15;2.40;;;1.60;;
65187;SDS011;51775;51.148;6.950;2023-07-08T01:13:41;2.15;;;1.50;;
65187;SDS011;51775;51.148;6.950;2023-07-08T01:16:09;2.60;;;1.60;;
65187;SDS011;51775;51.148;6.950;2023-07-08T01:18:34;2.45;;;1.45;;
65187;SDS011;51775;51.148;6.950;2023-07-08T01:21:01;2.45;;;1.48;;
65187;SDS011;51775;51.148;6.950;2023-07-08T01:23:31;2.38;;;1.50;;
65187;SDS011;51775;51.148;6.950;2023-07-08T01:25:56;2.40;;;1.60;;
65187;SDS011;51775;51.148;6.950;2023-07-08T01:28:21;2.50;;;1.60;;
65187;SDS011;51775;51.148;6.950;2023-07-08T01:30:47;2.30;;;1.58;;
65187;SDS011;51775;51.148;6.950;2023-07-08T01:33:18;2.08;;;1.45;;
65187;SDS011;51775;51.148;6.950;2023-07-08T01:35:45;2.60;;;1.55;;
65187;SDS011;51775;51.148;6.950;2023-07-08T01:38:11;2.50;;;1.70;;
65187;SDS011;51775;51.148;6.950;2023-07-08T01:40:47;2.47;;;1.50;;
65187;SDS011;51775;51.148;6.950;2023-07-08T01:43:14;2.58;;;1.58;;
65187;SDS011;51775;51.148;6.950;2023-07-08T01:45:40;2.45;;;1.67;;
65187;SDS011;51775;51.148;6.950;2023-07-08T01:48:11;2.70;;;1.50;;
65187;SDS011;51775;51.148;6.950;2023-07-08T01:50:40;2.10;;;1.40;;
65187;SDS011;51775;51.148;6.950;2023-07-08T01:53:11;2.20;;;1.55;;
65187;SDS011;51775;51.148;6.950;2023-07-08T01:55:40;2.00;;;1.40;;
65187;SDS011;51775;51.148;6.950;2023-07-08T01:58:05;2.20;;;1.40;;
65187;SDS011;51775;51.148;6.950;2023-07-08T02:00:30;2.17;;;1.58;;
65187;SDS011;51775;51.148;6.950;2023-07-08T02:02:56;2.58;;;1.52;;
65187;SDS011;51775;51.148;6.950;2023-07-08T02:05:22;1.92;;;1.40;;
65187;SDS011;51775;51.148;6.950;2023-07-08T02:07:48;2.35;;;1.50;;
65187;SDS011;51775;51.148;6.950;2023-07-08T02:10:13;2.40;;;1.60;;
65187;SDS011;51775;51.148;6.950;2023-07-08T02:12:38;2.42;;;1.50;;
65187;SDS011;51775;51.148;6.950;2023-07-08T02:15:04;2.60;;;1.70;;
65187;SDS011;51775;51.148;6.950;2023-07-08T02:17:29;2.30;;;1.60;;
65187;SDS011;51775;51.148;6.950;2023-07-08T02:19:55;2.53;;;1.60;;
65187;SDS011;51775;51.148;6.950;2023-07-08T02:22:22;2.50;;;1.70;;
65187;SDS011;51775;51.148;6.950;2023-07-08T02:24:47;2.40;;;1.50;;
65187;SDS011;51775;51.148;6.950;2023-07-08T02:27:13;2.65;;;1.60;;
65187;SDS011;51775;51.148;6.950;2023-07-08T02:29:38;2.30;;;1.40;;
65187;SDS011;51775;51.148;6.950;2023-07-08T02:32:04;2.50;;;1.60;;
65187;SDS011;51775;51.148;6.950;2023-07-08T02:34:30;2.63;;;1.70;;
65187;SDS011;51775;51.148;6.950;2023-07-08T02:36:55;2.35;;;1.58;;
65187;SDS011;51775;51.148;6.950;2023-07-08T02:39:20;2.20;;;1.45;;
65187;SDS011;51775;51.148;6.950;2023-07-08T02:41:46;2.50;;;1.60;;
65187;SDS011;51775;51.148;6.950;2023-07-08T02:44:11;2.70;;;1.73;;
65187;SDS011;51775;51.148;6.950;2023-07-08T02:46:36;2.25;;;1.60;;
65187;SDS011;51775;51.148;6.950;2023-07-08T02:49:01;2.57;;;1.70;;
65187;SDS011;51775;51.148;6.950;2023-07-08T02:51:27;2.42;;;1.45;;
65187;SDS011;51775;51.148;6.950;2023-07-08T02:53:52;2.60;;;1.80;;
65187;SDS011;51775;51.148;6.950;2023-07-08T02:56:17;2.60;;;1.50;;
65187;SDS011;51775;51.148;6.950;2023-07-08T02:58:42;2.30;;;1.60;;
65187;SDS011;51775;51.148;6.950;2023-07-08T03:01:08;2.30;;;1.40;;
65187;SDS011;51775;51.148;6.950;2023-07-08T03:03:34;2.33;;;1.60;;
65187;SDS011;51775;51.148;6.950;2023-07-08T03:06:00;2.72;;;1.70;;
65187;SDS011;51775;51.148;6.950;2023-07-08T03:08:27;2.83;;;1.77;;
65187;SDS011;51775;51.148;6.950;2023-07-08T03:10:56;2.30;;;1.50;;
65187;SDS011;51775;51.148;6.950;2023-07-08T03:13:23;2.40;;;1.60;;
65187;SDS011;51775;51.148;6.950;2023-07-08T03:15:49;2.40;;;1.67;;
65187;SDS011;51775;51.148;6.950;2023-07-08T03:18:15;2.40;;;1.60;;
65187;SDS011;51775;51.148;6.950;2023-07-08T03:20:40;2.72;;;1.63;;
65187;SDS011;51775;51.148;6.950;2023-07-08T03:23:06;2.60;;;1.60;;
65187;SDS011;51775;51.148;6.950;2023-07-08T03:25:31;2.92;;;1.60;;
65187;SDS011;51775;51.148;6.950;2023-07-08T03:27:56;2.50;;;1.60;;
65187;SDS011;51775;51.148;6.950;2023-07-08T03:30:21;2.70;;;1.60;;
65187;SDS011;51775;51.148;6.950;2023-07-08T03:32:47;2.40;;;1.65;;
65187;SDS011;51775;51.148;6.950;2023-07-08T03:35:12;2.30;;;1.48;;
65187;SDS011;51775;51.148;6.950;2023-07-08T03:37:37;2.58;;;1.67;;
65187;SDS011;51775;51.148;6.950;2023-07-08T03:40:02;2.83;;;1.77;;
65187;SDS011;51775;51.148;6.950;2023-07-08T03:42:28;2.63;;;1.60;;
65187;SDS011;51775;51.148;6.950;2023-07-08T03:44:53;2.60;;;1.60;;
65187;SDS011;51775;51.148;6.950;2023-07-08T03:47:18;2.60;;;1.70;;
65187;SDS011;51775;51.148;6.950;2023-07-08T03:49:44;2.60;;;1.60;;
65187;SDS011;51775;51.148;6.950;2023-07-08T03:52:11;2.55;;;1.58;;
65187;SDS011;51775;51.148;6.950;2023-07-08T03:54:40;2.95;;;1.80;;
65187;SDS011;51775;51.148;6.950;2023-07-08T03:57:05;2.40;;;1.75;;
65187;SDS011;51775;51.148;6.950;2023-07-08T03:59:31;2.50;;;1.60;;
65187;SDS011;51775;51.148;6.950;2023-07-08T04:01:56;2.70;;;1.80;;
65187;SDS011;51775;51.148;6.950;2023-07-08T04:04:21;2.58;;;1.80;;
65187;SDS011;51775;51.148;6.950;2023-07-08T04:06:47;2.70;;;1.70;;
65187;SDS011;51775;51.148;6.950;2023-07-08T04:09:13;2.60;;;1.70;;
65187;SDS011;51775;51.148;6.950;2023-07-08T04:11:38;2.17;;;1.50;;
65187;SDS011;51775;51.148;6.950;2023-07-08T04:14:03;2.42;;;1.65;;
65187;SDS011;51775;51.148;6.950;2023-07-08T04:16:30;2.72;;;1.65;;
65187;SDS011;51775;51.148;6.950;2023-07-08T04:19:02;2.20;;;1.55;;
65187;SDS011;51775;51.148;6.950;2023-07-08T04:21:27;2.75;;;1.70;;
65187;SDS011;51775;51.148;6.950;2023-07-08T04:23:52;2.72;;;1.80;;
65187;SDS011;51775;51.148;6.950;2023-07-08T04:26:17;2.33;;;1.60;;
65187;SDS011;51775;51.148;6.950;2023-07-08T04:28:43;2.65;;;1.77;;
65187;SDS011;51775;51.148;6.950;2023-07-08T04:31:08;2.80;;;1.90;;
65187;SDS011;51775;51.148;6.950;2023-07-08T04:33:33;2.33;;;1.50;;
65187;SDS011;51775;51.148;6.950;2023-07-08T04:35:59;2.38;;;1.60;;
65187;SDS011;51775;51.148;6.950;2023-07-08T04:38:25;2.83;;;1.80;;
65187;SDS011;51775;51.148;6.950;2023-07-08T04:40:51;2.47;;;1.60;;
65187;SDS011;51775;51.148;6.950;2023-07-08T04:43:18;2.58;;;1.77;;
65187;SDS011;51775;51.148;6.950;2023-07-08T04:45:45;2.40;;;1.63;;
65187;SDS011;51775;51.148;6.950;2023-07-08T04:48:16;2.50;;;1.65;;
65187;SDS011;51775;51.148;6.950;2023-07-08T04:50:43;2.35;;;1.60;;
65187;SDS011;51775;51.148;6.950;2023-07-08T04:53:10;2.63;;;1.58;;
65187;SDS011;51775;51.148;6.950;2023-07-08T04:55:36;2.17;;;1.52;;
65187;SDS011;51775;51.148;6.950;2023-07-08T04:58:04;2.47;;;1.73;;
65187;SDS011;51775;51.148;6.950;2023-07-08T05:00:29;2.65;;;1.70;;
65187;SDS011;51775;51.148;6.950;2023-07-08T05:02:55;2.25;;;1.48;;
65187;SDS011;51775;51.148;6.950;2023-07-08T05:05:20;2.35;;;1.70;;
65187;SDS011;51775;51.148;6.950;2023-07-08T05:07:46;2.60;;;1.80;;
65187;SDS011;51775;51.148;6.950;2023-07-08T05:10:11;2.53;;;1.70;;
65187;SDS011;51775;51.148;6.950;2023-07-08T05:12:37;2.60;;;1.80;;
65187;SDS011;51775;51.148;6.950;2023-07-08T05:15:02;2.58;;;1.55;;
65187;SDS011;51775;51.148;6.950;2023-07-08T05:17:28;2.30;;;1.63;;
65187;SDS011;51775;51.148;6.950;2023-07-08T05:19:53;2.50;;;1.70;;
65187;SDS011;51775;51.148;6.950;2023-07-08T05:22:18;2.65;;;1.73;;
65187;SDS011;51775;51.148;6.950;2023-07-08T05:24:44;2.40;;;1.70;;
65187;SDS011;51775;51.148;6.950;2023-07-08T05:27:09;3.40;;;1.55;;
65187;SDS011;51775;51.148;6.950;2023-07-08T05:29:34;2.60;;;1.80;;
65187;SDS011;51775;51.148;6.950;2023-07-08T05:31:59;2.65;;;1.83;;
65187;SDS011;51775;51.148;6.950;2023-07-08T05:34:25;2.70;;;1.75;;
65187;SDS011;51775;51.148;6.950;2023-07-08T05:36:50;2.35;;;1.60;;
65187;SDS011;51775;51.148;6.950;2023-07-08T05:39:15;2.50;;;1.63;;
65187;SDS011;51775;51.148;6.950;2023-07-08T05:41:40;2.53;;;1.60;;
65187;SDS011;51775;51.148;6.950;2023-07-08T05:44:06;2.55;;;1.83;;
65187;SDS011;51775;51.148;6.950;2023-07-08T05:46:31;2.40;;;1.60;;
65187;SDS011;51775;51.148;6.950;2023-07-08T05:48:56;2.95;;;1.88;;
65187;SDS011;51775;51.148;6.950;2023-07-08T05:51:21;2.42;;;1.73;;
65187;SDS011;51775;51.148;6.950;2023-07-08T05:53:47;3.15;;;1.80;;
65187;SDS011;51775;51.148;6.950;2023-07-08T05:56:12;3.45;;;1.80;;
65187;SDS011;51775;51.148;6.950;2023-07-08T05:58:37;3.72;;;2.00;;
65187;SDS011;51775;51.148;6.950;2023-07-08T06:01:03;3.72;;;2.03;;
65187;SDS011;51775;51.148;6.950;2023-07-08T06:03:28;2.88;;;1.70;;
65187;SDS011;51775;51.148;6.950;2023-07-08T06:05:54;2.78;;;1.75;;
65187;SDS011;51775;51.148;6.950;2023-07-08T06:08:19;3.20;;;1.80;;
65187;SDS011;51775;51.148;6.950;2023-07-08T06:10:45;2.67;;;1.88;;
65187;SDS011;51775;51.148;6.950;2023-07-08T06:13:10;2.70;;;1.90;;
65187;SDS011;51775;51.148;6.950;2023-07-08T06:15:37;3.17;;;1.90;;
65187;SDS011;51775;51.148;6.950;2023-07-08T06:18:02;2.60;;;1.65;;
65187;SDS011;51775;51.148;6.950;2023-07-08T06:20:28;2.95;;;1.83;;
65187;SDS011;51775;51.148;6.950;2023-07-08T06:22:53;3.53;;;1.90;;
65187;SDS011;51775;51.148;6.950;2023-07-08T06:25:19;3.05;;;2.00;;
65187;SDS011;51775;51.148;6.950;2023-07-08T06:27:44;2.90;;;1.80;;
65187;SDS011;51775;51.148;6.950;2023-07-08T06:30:09;4.33;;;2.00;;
65187;SDS011;51775;51.148;6.950;2023-07-08T06:32:35;2.70;;;1.70;;
65187;SDS011;51775;51.148;6.950;2023-07-08T06:35:00;3.20;;;1.98;;
65187;SDS011;51775;51.148;6.950;2023-07-08T06:37:25;2.92;;;1.98;;
65187;SDS011;51775;51.148;6.950;2023-07-08T06:39:51;2.90;;;1.90;;
65187;SDS011;51775;51.148;6.950;2023-07-08T06:42:16;2.97;;;1.88;;
65187;SDS011;51775;51.148;6.950;2023-07-08T06:44:41;3.25;;;2.05;;
65187;SDS011;51775;51.148;6.950;2023-07-08T06:47:06;4.03;;;1.87;;
65187;SDS011;51775;51.148;6.950;2023-07-08T06:49:32;2.83;;;1.88;;
65187;SDS011;51775;51.148;6.950;2023-07-08T06:51:57;2.55;;;1.77;;
65187;SDS011;51775;51.148;6.950;2023-07-08T06:54:22;2.75;;;1.83;;
65187;SDS011;51775;51.148;6.950;2023-07-08T06:56:47;3.05;;;1.83;;
65187;SDS011;51775;51.148;6.950;2023-07-08T06:59:13;2.53;;;1.67;;
65187;SDS011;51775;51.148;6.950;2023-07-08T07:01:39;2.97;;;1.80;;
65187;SDS011;51775;51.148;6.950;2023-07-08T07:04:05;3.90;;;2.03;;
65187;SDS011;51775;51.148;6.950;2023-07-08T07:06:30;2.83;;;1.80;;
65187;SDS011;51775;51.148;6.950;2023-07-08T07:08:55;2.75;;;1.80;;
65187;SDS011;51775;51.148;6.950;2023-07-08T07:11:20;2.75;;;1.77;;
65187;SDS011;51775;51.148;6.950;2023-07-08T07:13:46;3.20;;;1.90;;
65187;SDS011;51775;51.148;6.950;2023-07-08T07:16:11;3.10;;;2.00;;
65187;SDS011;51775;51.148;6.950;2023-07-08T07:18:36;2.80;;;1.92;;
65187;SDS011;51775;51.148;6.950;2023-07-08T07:21:02;3.75;;;1.60;;
65187;SDS011;51775;51.148;6.950;2023-07-08T07:23:27;2.88;;;1.80;;
65187;SDS011;51775;51.148;6.950;2023-07-08T07:25:52;4.38;;;2.00;;
65187;SDS011;51775;51.148;6.950;2023-07-08T07:28:18;2.60;;;1.80;;
65187;SDS011;51775;51.148;6.950;2023-07-08T07:30:43;2.97;;;2.00;;
65187;SDS011;51775;51.148;6.950;2023-07-08T07:33:09;3.03;;;1.92;;
65187;SDS011;51775;51.148;6.950;2023-07-08T07:35:35;2.55;;;1.70;;
65187;SDS011;51775;51.148;6.950;2023-07-08T07:38:00;3.85;;;2.08;;
65187;SDS011;51775;51.148;6.950;2023-07-08T07:40:26;3.38;;;2.00;;
65187;SDS011;51775;51.148;6.950;2023-07-08T07:42:51;3.38;;;2.10;;
65187;SDS011;51775;51.148;6.950;2023-07-08T07:45:16;2.88;;;1.98;;
65187;SDS011;51775;51.148;6.950;2023-07-08T07:47:42;3.75;;;1.80;;
65187;SDS011;51775;51.148;6.950;2023-07-08T07:50:08;3.47;;;1.90;;
65187;SDS011;51775;51.148;6.950;2023-07-08T07:52:34;2.80;;;1.80;;
65187;SDS011;51775;51.148;6.950;2023-07-08T07:55:00;2.72;;;1.75;;
65187;SDS011;51775;51.148;6.950;2023-07-08T07:57:27;3.70;;;1.75;;
65187;SDS011;51775;51.148;6.950;2023-07-08T07:59:52;2.50;;;1.80;;
65187;SDS011;51775;51.148;6.950;2023-07-08T08:02:17;2.80;;;1.90;;
65187;SDS011;51775;51.148;6.950;2023-07-08T08:04:44;3.03;;;1.70;;
65187;SDS011;51775;51.148;6.950;2023-07-08T08:07:10;3.15;;;2.10;;
65187;SDS011;51775;51.148;6.950;2023-07-08T08:09:36;2.55;;;1.80;;
65187;SDS011;51775;51.148;6.950;2023-07-08T08:12:02;2.65;;;1.70;;
65187;SDS011;51775;51.148;6.950;2023-07-08T08:14:30;2.30;;;1.70;;
65187;SDS011;51775;51.148;6.950;2023-07-08T08:16:56;3.00;;;1.80;;
65187;SDS011;51775;51.148;6.950;2023-07-08T08:19:21;2.20;;;1.60;;
65187;SDS011;51775;51.148;6.950;2023-07-08T08:21:46;3.10;;;1.98;;
65187;SDS011;51775;51.148;6.950;2023-07-08T08:24:11;3.03;;;1.90;;
65187;SDS011;51775;51.148;6.950;2023-07-08T08:26:37;3.45;;;2.00;;
65187;SDS011;51775;51.148;6.950;2023-07-08T08:29:02;3.08;;;1.85;;
65187;SDS011;51775;51.148;6.950;2023-07-08T08:31:27;3.25;;;1.90;;
65187;SDS011;51775;51.148;6.950;2023-07-08T08:33:53;2.38;;;1.73;;
65187;SDS011;51775;51.148;6.950;2023-07-08T08:36:18;2.65;;;1.75;;
65187;SDS011;51775;51.148;6.950;2023-07-08T08:38:43;2.60;;;1.90;;
65187;SDS011;51775;51.148;6.950;2023-07-08T08:41:13;2.90;;;1.88;;
65187;SDS011;51775;51.148;6.950;2023-07-08T08:43:39;3.50;;;1.83;;
65187;SDS011;51775;51.148;6.950;2023-07-08T08:46:12;2.58;;;1.70;;
65187;SDS011;51775;51.148;6.950;2023-07-08T08:48:51;2.67;;;1.70;;
65187;SDS011;51775;51.148;6.950;2023-07-08T08:51:30;5.70;;;2.00;;
65187;SDS011;51775;51.148;6.950;2023-07-08T08:53:57;5.60;;;1.98;;
65187;SDS011;51775;51.148;6.950;2023-07-08T08:56:25;4.55;;;1.90;;
65187;SDS011;51775;51.148;6.950;2023-07-08T09:01:36;4.38;;;1.95;;
65187;SDS011;51775;51.148;6.950;2023-07-08T09:04:03;3.55;;;1.88;;
65187;SDS011;51775;51.148;6.950;2023-07-08T09:06:36;3.50;;;1.95;;
65187;SDS011;51775;51.148;6.950;2023-07-08T09:09:15;3.20;;;1.83;;
65187;SDS011;51775;51.148;6.950;2023-07-08T09:11:53;3.45;;;1.80;;
65187;SDS011;51775;51.148;6.950;2023-07-08T09:14:30;2.80;;;1.80;;
65187;SDS011;51775;51.148;6.950;2023-07-08T09:19:43;6.45;;;2.10;;
65187;SDS011;51775;51.148;6.950;2023-07-08T09:22:25;2.90;;;1.73;;
65187;SDS011;51775;51.148;6.950;2023-07-08T09:25:05;2.95;;;2.00;;
65187;SDS011;51775;51.148;6.950;2023-07-08T09:27:40;4.30;;;2.25;;
65187;SDS011;51775;51.148;6.950;2023-07-08T09:30:07;5.25;;;2.13;;
65187;SDS011;51775;51.148;6.950;2023-07-08T09:32:38;5.40;;;2.22;;
65187;SDS011;51775;51.148;6.950;2023-07-08T09:35:05;4.53;;;2.20;;
65187;SDS011;51775;51.148;6.950;2023-07-08T09:37:33;3.53;;;2.22;;
65187;SDS011;51775;51.148;6.950;2023-07-08T09:42:42;3.35;;;2.08;;
65187;SDS011;51775;51.148;6.950;2023-07-08T09:45:13;3.47;;;2.35;;
65187;SDS011;51775;51.148;6.950;2023-07-08T09:47:42;5.05;;;2.10;;
65187;SDS011;51775;51.148;6.950;2023-07-08T09:50:27;3.33;;;1.90;;
65187;SDS011;51775;51.148;6.950;2023-07-08T09:52:57;4.15;;;2.05;;
65187;SDS011;51775;51.148;6.950;2023-07-08T09:55:23;4.32;;;2.30;;
65187;SDS011;51775;51.148;6.950;2023-07-08T09:57:50;3.92;;;2.10;;
65187;SDS011;51775;51.148;6.950;2023-07-08T10:00:18;5.57;;;1.90;;
65187;SDS011;51775;51.148;6.950;2023-07-08T10:02:54;3.10;;;2.05;;
65187;SDS011;51775;51.148;6.950;2023-07-08T10:05:27;4.10;;;2.30;;
65187;SDS011;51775;51.148;6.950;2023-07-08T10:07:57;3.80;;;2.17;;
65187;SDS011;51775;51.148;6.950;2023-07-08T10:10:26;2.83;;;1.90;;
65187;SDS011;51775;51.148;6.950;2023-07-08T10:12:57;3.45;;;2.00;;
65187;SDS011;51775;51.148;6.950;2023-07-08T10:15:30;3.17;;;1.95;;
65187;SDS011;51775;51.148;6.950;2023-07-08T10:18:00;4.10;;;2.13;;
65187;SDS011;51775;51.148;6.950;2023-07-08T10:20:28;2.75;;;1.80;;
65187;SDS011;51775;51.148;6.950;2023-07-08T10:30:58;2.85;;;1.88;;
65187;SDS011;51775;51.148;6.950;2023-07-08T10:33:45;3.20;;;2.10;;
65187;SDS011;51775;51.148;6.950;2023-07-08T10:44:37;4.28;;;2.10;;
65187;SDS011;51775;51.148;6.950;2023-07-08T10:53:04;3.20;;;1.90;;
65187;SDS011;51775;51.148;6.950;2023-07-08T11:04:33;3.45;;;2.00;;
65187;SDS011;51775;51.148;6.950;2023-07-08T11:06:46;2.97;;;1.90;;
65187;SDS011;51775;51.148;6.950;2023-07-08T11:09:18;3.28;;;2.00;;
65187;SDS011;51775;51.148;6.950;2023-07-08T11:11:53;2.70;;;1.80;;
65187;SDS011;51775;51.148;6.950;2023-07-08T11:14:25;2.60;;;1.75;;
65187;SDS011;51775;51.148;6.950;2023-07-08T11:19:49;3.40;;;1.85;;
65187;SDS011;51775;51.148;6.950;2023-07-08T11:22:27;3.50;;;2.00;;
65187;SDS011;51775;51.148;6.950;2023-07-08T11:24:54;3.35;;;1.80;;
65187;SDS011;51775;51.148;6.950;2023-07-08T11:27:26;2.42;;;1.67;;
65187;SDS011;51775;51.148;6.950;2023-07-08T11:29:58;3.22;;;1.83;;
65187;SDS011;51775;51.148;6.950;2023-07-08T11:32:27;2.90;;;1.88;;
65187;SDS011;51775;51.148;6.950;2023-07-08T11:34:54;3.42;;;1.80;;
65187;SDS011;51775;51.148;6.950;2023-07-08T11:37:22;2.90;;;1.92;;
65187;SDS011;51775;51.148;6.950;2023-07-08T11:40:07;2.72;;;1.80;;
65187;SDS011;51775;51.148;6.950;2023-07-08T11:42:49;3.08;;;1.60;;
65187;SDS011;51775;51.148;6.950;2023-07-08T11:47:45;2.88;;;1.77;;
65187;SDS011;51775;51.148;6.950;2023-07-08T11:50:22;3.53;;;2.00;;
65187;SDS011;51775;51.148;6.950;2023-07-08T11:52:54;2.90;;;2.00;;
65187;SDS011;51775;51.148;6.950;2023-07-08T11:55:25;2.90;;;1.73;;
65187;SDS011;51775;51.148;6.950;2023-07-08T11:57:59;3.72;;;1.83;;
65187;SDS011;51775;51.148;6.950;2023-07-08T12:00:25;2.55;;;1.70;;
65187;SDS011;51775;51.148;6.950;2023-07-08T12:02:56;2.60;;;1.65;;
65187;SDS011;51775;51.148;6.950;2023-07-08T12:05:29;3.25;;;1.67;;
65187;SDS011;51775;51.148;6.950;2023-07-08T12:07:56;2.60;;;1.77;;
65187;SDS011;51775;51.148;6.950;2023-07-08T12:10:24;2.90;;;1.70;;
65187;SDS011;51775;51.148;6.950;2023-07-08T12:12:53;2.90;;;1.90;;
65187;SDS011;51775;51.148;6.950;2023-07-08T12:15:25;2.60;;;1.70;;
65187;SDS011;51775;51.148;6.950;2023-07-08T12:17:56;3.38;;;1.90;;
65187;SDS011;51775;51.148;6.950;2023-07-08T12:20:30;3.30;;;1.77;;
65187;SDS011;51775;51.148;6.950;2023-07-08T12:22:57;2.40;;;1.40;;
65187;SDS011;51775;51.148;6.950;2023-07-08T12:25:25;2.35;;;1.48;;
65187;SDS011;51775;51.148;6.950;2023-07-08T12:27:53;2.90;;;1.80;;
65187;SDS011;51775;51.148;6.950;2023-07-08T12:30:18;3.00;;;1.77;;
65187;SDS011;51775;51.148;6.950;2023-07-08T12:32:44;2.63;;;1.70;;
65187;SDS011;51775;51.148;6.950;2023-07-08T12:35:31;2.85;;;1.73;;
65187;SDS011;51775;51.148;6.950;2023-07-08T12:38:01;2.50;;;1.50;;
65187;SDS011;51775;51.148;6.950;2023-07-08T12:40:29;2.67;;;1.70;;
65187;SDS011;51775;51.148;6.950;2023-07-08T12:42:56;2.53;;;1.75;;
65187;SDS011;51775;51.148;6.950;2023-07-08T12:45:23;2.58;;;1.60;;
65187;SDS011;51775;51.148;6.950;2023-07-08T12:47:49;2.90;;;1.80;;
65187;SDS011;51775;51.148;6.950;2023-07-08T12:50:14;2.40;;;1.58;;
65187;SDS011;51775;51.148;6.950;2023-07-08T12:52:42;3.63;;;1.83;;
65187;SDS011;51775;51.148;6.950;2023-07-08T12:55:09;2.70;;;1.80;;
65187;SDS011;51775;51.148;6.950;2023-07-08T12:57:35;2.55;;;1.70;;
65187;SDS011;51775;51.148;6.950;2023-07-08T13:00:01;2.47;;;1.55;;
65187;SDS011;51775;51.148;6.950;2023-07-08T13:02:27;2.88;;;1.75;;
65187;SDS011;51775;51.148;6.950;2023-07-08T13:04:56;2.50;;;1.63;;
65187;SDS011;51775;51.148;6.950;2023-07-08T13:07:43;3.05;;;1.50;;
65187;SDS011;51775;51.148;6.950;2023-07-08T13:10:15;2.80;;;1.70;;
65187;SDS011;51775;51.148;6.950;2023-07-08T13:12:45;3.28;;;1.45;;
65187;SDS011;51775;51.148;6.950;2023-07-08T13:15:15;2.72;;;1.77;;
65187;SDS011;51775;51.148;6.950;2023-07-08T13:17:46;3.10;;;1.70;;
65187;SDS011;51775;51.148;6.950;2023-07-08T13:20:15;2.45;;;1.60;;
65187;SDS011;51775;51.148;6.950;2023-07-08T13:22:42;2.70;;;1.60;;
65187;SDS011;51775;51.148;6.950;2023-07-08T13:25:16;2.70;;;1.80;;
65187;SDS011;51775;51.148;6.950;2023-07-08T13:27:53;2.38;;;1.58;;
65187;SDS011;51775;51.148;6.950;2023-07-08T13:30:20;2.85;;;1.73;;
65187;SDS011;51775;51.148;6.950;2023-07-08T13:32:57;2.65;;;1.70;;
65187;SDS011;51775;51.148;6.950;2023-07-08T13:35:45;2.72;;;1.50;;
65187;SDS011;51775;51.148;6.950;2023-07-08T13:38:14;3.17;;;1.50;;
65187;SDS011;51775;51.148;6.950;2023-07-08T13:40:45;2.35;;;1.45;;
65187;SDS011;51775;51.148;6.950;2023-07-08T13:43:12;2.28;;;1.50;;
65187;SDS011;51775;51.148;6.950;2023-07-08T13:45:39;2.40;;;1.50;;
65187;SDS011;51775;51.148;6.950;2023-07-08T13:48:13;2.78;;;1.70;;
65187;SDS011;51775;51.148;6.950;2023-07-08T13:50:47;1.92;;;1.50;;
65187;SDS011;51775;51.148;6.950;2023-07-08T13:53:20;2.25;;;1.40;;
65187;SDS011;51775;51.148;6.950;2023-07-08T13:55:47;2.20;;;1.58;;
65187;SDS011;51775;51.148;6.950;2023-07-08T13:58:14;3.40;;;1.70;;
65187;SDS011;51775;51.148;6.950;2023-07-08T14:00:42;2.50;;;1.50;;
65187;SDS011;51775;51.148;6.950;2023-07-08T14:03:10;2.10;;;1.50;;
65187;SDS011;51775;51.148;6.950;2023-07-08T14:05:38;3.20;;;1.60;;
65187;SDS011;51775;51.148;6.950;2023-07-08T14:08:10;2.30;;;1.48;;
65187;SDS011;51775;51.148;6.950;2023-07-08T14:10:40;2.50;;;1.60;;
65187;SDS011;51775;51.148;6.950;2023-07-08T14:13:05;2.30;;;1.50;;
65187;SDS011;51775;51.148;6.950;2023-07-08T14:15:30;2.08;;;1.30;;
65187;SDS011;51775;51.148;6.950;2023-07-08T14:17:56;2.30;;;1.42;;
65187;SDS011;51775;51.148;6.950;2023-07-08T14:20:21;2.33;;;1.40;;
65187;SDS011;51775;51.148;6.950;2023-07-08T14:22:50;2.38;;;1.50;;
65187;SDS011;51775;51.148;6.950;2023-07-08T14:25:16;2.10;;;1.40;;
65187;SDS011;51775;51.148;6.950;2023-07-08T14:27:41;2.15;;;1.40;;
65187;SDS011;51775;51.148;6.950;2023-07-08T14:30:08;2.40;;;1.40;;
65187;SDS011;51775;51.148;6.950;2023-07-08T14:32:35;2.22;;;1.40;;
65187;SDS011;51775;51.148;6.950;2023-07-08T14:35:09;2.72;;;1.60;;
65187;SDS011;51775;51.148;6.950;2023-07-08T14:37:40;2.00;;;1.30;;
65187;SDS011;51775;51.148;6.950;2023-07-08T14:40:14;2.58;;;1.50;;
65187;SDS011;51775;51.148;6.950;2023-07-08T14:42:46;2.63;;;1.60;;
65187;SDS011;51775;51.148;6.950;2023-07-08T14:45:12;2.30;;;1.50;;
65187;SDS011;51775;51.148;6.950;2023-07-08T14:47:37;2.95;;;1.60;;
65187;SDS011;51775;51.148;6.950;2023-07-08T14:50:12;2.95;;;1.50;;
65187;SDS011;51775;51.148;6.950;2023-07-08T14:52:39;2.35;;;1.42;;
65187;SDS011;51775;51.148;6.950;2023-07-08T14:55:04;2.10;;;1.40;;
65187;SDS011;51775;51.148;6.950;2023-07-08T14:57:30;2.60;;;1.50;;
65187;SDS011;51775;51.148;6.950;2023-07-08T14:59:59;2.70;;;1.60;;
65187;SDS011;51775;51.148;6.950;2023-07-08T15:02:25;2.05;;;1.40;;
65187;SDS011;51775;51.148;6.950;2023-07-08T15:04:50;2.42;;;1.40;;
65187;SDS011;51775;51.148;6.950;2023-07-08T15:07:18;3.40;;;1.50;;
65187;SDS011;51775;51.148;6.950;2023-07-08T15:09:43;2.17;;;1.27;;
65187;SDS011;51775;51.148;6.950;2023-07-08T15:12:09;2.28;;;1.50;;
65187;SDS011;51775;51.148;6.950;2023-07-08T15:14:36;2.20;;;1.40;;
65187;SDS011;51775;51.148;6.950;2023-07-08T15:17:01;2.53;;;1.35;;
65187;SDS011;51775;51.148;6.950;2023-07-08T15:19:26;2.10;;;1.50;;
65187;SDS011;51775;51.148;6.950;2023-07-08T15:21:51;2.47;;;1.40;;
65187;SDS011;51775;51.148;6.950;2023-07-08T15:24:17;2.13;;;1.40;;
65187;SDS011;51775;51.148;6.950;2023-07-08T15:26:43;2.10;;;1.33;;
65187;SDS011;51775;51.148;6.950;2023-07-08T15:29:18;2.33;;;1.42;;
65187;SDS011;51775;51.148;6.950;2023-07-08T15:31:45;2.30;;;1.50;;
65187;SDS011;51775;51.148;6.950;2023-07-08T15:34:14;2.30;;;1.30;;
65187;SDS011;51775;51.148;6.950;2023-07-08T15:36:41;2.20;;;1.40;;
65187;SDS011;51775;51.148;6.950;2023-07-08T15:39:06;2.20;;;1.30;;
65187;SDS011;51775;51.148;6.950;2023-07-08T15:41:31;2.42;;;1.48;;
65187;SDS011;51775;51.148;6.950;2023-07-08T15:43:57;2.20;;;1.40;;